sensor_id;sensor_type;location;lat;lon;timestamp;P1;durP1;ratioP1;P2;durP2;ratioP2
26588;SDS011;14235;48.532;8.722;2023-10-08T00:02:03;6.18;;;3.83;;
26588;SDS011;14235;48.532;8.722;2023-10-08T00:04:31;4.15;;;3.75;;
26588;SDS011;14235;48.532;8.722;2023-10-08T00:07:02;7.97;;;4.47;;
26588;SDS011;14235;48.532;8.722;2023-10-08T00:09:32;6.65;;;4.10;;
26588;SDS011;14235;48.532;8.722;2023-10-08T00:12:02;6.10;;;3.97;;
26588;SDS011;14235;48.532;8.722;2023-10-08T00:14:29;5.40;;;3.95;;
26588;SDS011;14235;48.532;8.722;2023-10-08T00:16:55;4.72;;;3.80;;
26588;SDS011;14235;48.532;8.722;2023-10-08T00:19:20;5.75;;;4.10;;
26588;SDS011;14235;48.532;8.722;2023-10-08T00:21:46;7.53;;;4.30;;
26588;SDS011;14235;48.532;8.722;2023-10-08T00:24:13;4.70;;;3.90;;
26588;SDS011;14235;48.532;8.722;2023-10-08T00:26:39;4.95;;;3.97;;
26588;SDS011;14235;48.532;8.722;2023-10-08T00:29:06;5.22;;;3.85;;
26588;SDS011;14235;48.532;8.722;2023-10-08T00:31:40;6.05;;;3.67;;
26588;SDS011;14235;48.532;8.722;2023-10-08T00:34:07;6.22;;;3.90;;
26588;SDS011;14235;48.532;8.722;2023-10-08T00:36:37;4.25;;;3.85;;
26588;SDS011;14235;48.532;8.722;2023-10-08T00:39:04;4.53;;;3.70;;
26588;SDS011;14235;48.532;8.722;2023-10-08T00:41:35;6.85;;;4.05;;
26588;SDS011;14235;48.532;8.722;2023-10-08T00:44:06;6.38;;;3.75;;
26588;SDS011;14235;48.532;8.722;2023-10-08T00:46:32;4.95;;;3.72;;
26588;SDS011;14235;48.532;8.722;2023-10-08T00:49:04;4.70;;;4.18;;
26588;SDS011;14235;48.532;8.722;2023-10-08T00:51:49;5.07;;;3.78;;
26588;SDS011;14235;48.532;8.722;2023-10-08T00:54:37;6.80;;;4.20;;
26588;SDS011;14235;48.532;8.722;2023-10-08T00:57:22;4.78;;;3.53;;
26588;SDS011;14235;48.532;8.722;2023-10-08T00:59:49;4.32;;;3.55;;
26588;SDS011;14235;48.532;8.722;2023-10-08T01:02:21;5.30;;;3.60;;
26588;SDS011;14235;48.532;8.722;2023-10-08T01:04:53;4.40;;;3.65;;
26588;SDS011;14235;48.532;8.722;2023-10-08T01:07:19;4.47;;;3.33;;
26588;SDS011;14235;48.532;8.722;2023-10-08T01:09:46;5.25;;;3.42;;
26588;SDS011;14235;48.532;8.722;2023-10-08T01:12:22;4.57;;;3.58;;
26588;SDS011;14235;48.532;8.722;2023-10-08T01:14:51;5.45;;;3.80;;
26588;SDS011;14235;48.532;8.722;2023-10-08T01:17:21;5.78;;;3.80;;
26588;SDS011;14235;48.532;8.722;2023-10-08T01:19:50;5.03;;;3.67;;
26588;SDS011;14235;48.532;8.722;2023-10-08T01:22:25;4.68;;;3.65;;
26588;SDS011;14235;48.532;8.722;2023-10-08T01:24:54;4.30;;;3.55;;
26588;SDS011;14235;48.532;8.722;2023-10-08T01:27:20;4.88;;;3.65;;
26588;SDS011;14235;48.532;8.722;2023-10-08T01:29:48;6.15;;;3.58;;
26588;SDS011;14235;48.532;8.722;2023-10-08T01:32:16;4.63;;;3.35;;
26588;SDS011;14235;48.532;8.722;2023-10-08T01:34:42;4.75;;;3.58;;
26588;SDS011;14235;48.532;8.722;2023-10-08T01:37:14;5.43;;;3.40;;
26588;SDS011;14235;48.532;8.722;2023-10-08T01:39:44;6.10;;;3.58;;
26588;SDS011;14235;48.532;8.722;2023-10-08T01:42:11;4.50;;;3.30;;
26588;SDS011;14235;48.532;8.722;2023-10-08T01:44:42;5.10;;;3.67;;
26588;SDS011;14235;48.532;8.722;2023-10-08T01:47:11;5.43;;;3.90;;
26588;SDS011;14235;48.532;8.722;2023-10-08T01:49:38;5.20;;;3.67;;
26588;SDS011;14235;48.532;8.722;2023-10-08T01:52:05;7.40;;;3.70;;
26588;SDS011;14235;48.532;8.722;2023-10-08T01:54:32;3.95;;;3.40;;
26588;SDS011;14235;48.532;8.722;2023-10-08T01:57:00;4.22;;;3.55;;
26588;SDS011;14235;48.532;8.722;2023-10-08T01:59:26;4.22;;;3.58;;
26588;SDS011;14235;48.532;8.722;2023-10-08T02:01:52;4.05;;;3.25;;
26588;SDS011;14235;48.532;8.722;2023-10-08T02:04:21;7.93;;;3.80;;
26588;SDS011;14235;48.532;8.722;2023-10-08T02:06:46;5.07;;;3.58;;
26588;SDS011;14235;48.532;8.722;2023-10-08T02:09:12;4.85;;;3.55;;
26588;SDS011;14235;48.532;8.722;2023-10-08T02:11:42;6.25;;;3.58;;
26588;SDS011;14235;48.532;8.722;2023-10-08T02:14:15;5.95;;;3.67;;
26588;SDS011;14235;48.532;8.722;2023-10-08T02:16:42;3.65;;;3.00;;
26588;SDS011;14235;48.532;8.722;2023-10-08T02:19:09;4.43;;;3.25;;
26588;SDS011;14235;48.532;8.722;2023-10-08T02:21:37;4.03;;;3.38;;
26588;SDS011;14235;48.532;8.722;2023-10-08T02:24:07;4.78;;;3.10;;
26588;SDS011;14235;48.532;8.722;2023-10-08T02:26:33;7.88;;;3.53;;
26588;SDS011;14235;48.532;8.722;2023-10-08T02:29:02;6.88;;;3.65;;
26588;SDS011;14235;48.532;8.722;2023-10-08T02:31:35;4.30;;;3.30;;
26588;SDS011;14235;48.532;8.722;2023-10-08T02:34:02;5.38;;;3.15;;
26588;SDS011;14235;48.532;8.722;2023-10-08T02:36:29;5.00;;;3.75;;
26588;SDS011;14235;48.532;8.722;2023-10-08T02:38:55;4.60;;;3.40;;
26588;SDS011;14235;48.532;8.722;2023-10-08T02:41:21;5.95;;;3.28;;
26588;SDS011;14235;48.532;8.722;2023-10-08T02:43:49;4.65;;;3.25;;
26588;SDS011;14235;48.532;8.722;2023-10-08T02:46:15;4.95;;;3.47;;
26588;SDS011;14235;48.532;8.722;2023-10-08T02:48:42;4.32;;;3.53;;
26588;SDS011;14235;48.532;8.722;2023-10-08T02:51:07;6.65;;;3.65;;
26588;SDS011;14235;48.532;8.722;2023-10-08T02:53:39;5.93;;;3.58;;
26588;SDS011;14235;48.532;8.722;2023-10-08T02:56:07;4.45;;;3.28;;
26588;SDS011;14235;48.532;8.722;2023-10-08T02:58:37;3.67;;;3.30;;
26588;SDS011;14235;48.532;8.722;2023-10-08T03:01:04;6.63;;;3.50;;
26588;SDS011;14235;48.532;8.722;2023-10-08T03:03:30;7.22;;;3.42;;
26588;SDS011;14235;48.532;8.722;2023-10-08T03:05:57;5.47;;;3.58;;
26588;SDS011;14235;48.532;8.722;2023-10-08T03:08:23;6.65;;;3.63;;
26588;SDS011;14235;48.532;8.722;2023-10-08T03:10:52;4.60;;;3.38;;
26588;SDS011;14235;48.532;8.722;2023-10-08T03:13:21;4.15;;;3.15;;
26588;SDS011;14235;48.532;8.722;2023-10-08T03:15:48;4.20;;;3.58;;
26588;SDS011;14235;48.532;8.722;2023-10-08T03:18:26;4.60;;;3.30;;
26588;SDS011;14235;48.532;8.722;2023-10-08T03:21:01;4.75;;;3.05;;
26588;SDS011;14235;48.532;8.722;2023-10-08T03:23:31;4.93;;;3.42;;
26588;SDS011;14235;48.532;8.722;2023-10-08T03:26:01;4.47;;;2.80;;
26588;SDS011;14235;48.532;8.722;2023-10-08T03:28:35;4.15;;;3.10;;
26588;SDS011;14235;48.532;8.722;2023-10-08T03:31:02;5.53;;;3.33;;
26588;SDS011;14235;48.532;8.722;2023-10-08T03:33:39;4.50;;;3.55;;
26588;SDS011;14235;48.532;8.722;2023-10-08T03:36:08;4.50;;;3.38;;
26588;SDS011;14235;48.532;8.722;2023-10-08T03:38:46;5.32;;;3.28;;
26588;SDS011;14235;48.532;8.722;2023-10-08T03:41:17;3.55;;;3.15;;
26588;SDS011;14235;48.532;8.722;2023-10-08T03:43:52;5.07;;;3.42;;
26588;SDS011;14235;48.532;8.722;2023-10-08T03:46:21;3.72;;;2.65;;
26588;SDS011;14235;48.532;8.722;2023-10-08T03:48:49;4.05;;;3.47;;
26588;SDS011;14235;48.532;8.722;2023-10-08T03:51:19;5.65;;;3.47;;
26588;SDS011;14235;48.532;8.722;2023-10-08T03:53:46;4.47;;;3.33;;
26588;SDS011;14235;48.532;8.722;2023-10-08T03:56:31;4.80;;;3.40;;
26588;SDS011;14235;48.532;8.722;2023-10-08T03:59:01;4.32;;;3.10;;
26588;SDS011;14235;48.532;8.722;2023-10-08T04:01:47;4.70;;;3.10;;
26588;SDS011;14235;48.532;8.722;2023-10-08T04:04:19;5.20;;;3.10;;
26588;SDS011;14235;48.532;8.722;2023-10-08T04:06:46;6.40;;;3.33;;
26588;SDS011;14235;48.532;8.722;2023-10-08T04:09:14;4.13;;;3.30;;
26588;SDS011;14235;48.532;8.722;2023-10-08T04:11:49;5.93;;;3.20;;
26588;SDS011;14235;48.532;8.722;2023-10-08T04:14:22;4.88;;;3.20;;
26588;SDS011;14235;48.532;8.722;2023-10-08T04:16:48;7.88;;;3.28;;
26588;SDS011;14235;48.532;8.722;2023-10-08T04:19:21;6.70;;;3.50;;
26588;SDS011;14235;48.532;8.722;2023-10-08T04:21:52;4.10;;;3.58;;
26588;SDS011;14235;48.532;8.722;2023-10-08T04:24:22;6.00;;;3.90;;
26588;SDS011;14235;48.532;8.722;2023-10-08T04:26:57;7.50;;;3.42;;
26588;SDS011;14235;48.532;8.722;2023-10-08T04:29:23;5.28;;;3.90;;
26588;SDS011;14235;48.532;8.722;2023-10-08T04:31:49;4.88;;;2.85;;
26588;SDS011;14235;48.532;8.722;2023-10-08T04:34:26;5.10;;;3.33;;
26588;SDS011;14235;48.532;8.722;2023-10-08T04:36:55;4.70;;;3.30;;
26588;SDS011;14235;48.532;8.722;2023-10-08T04:39:27;4.93;;;3.88;;
26588;SDS011;14235;48.532;8.722;2023-10-08T04:42:01;4.65;;;3.47;;
26588;SDS011;14235;48.532;8.722;2023-10-08T04:44:37;5.22;;;3.13;;
26588;SDS011;14235;48.532;8.722;2023-10-08T04:47:11;6.07;;;3.60;;
26588;SDS011;14235;48.532;8.722;2023-10-08T04:49:56;4.93;;;3.20;;
26588;SDS011;14235;48.532;8.722;2023-10-08T04:52:23;5.45;;;3.47;;
26588;SDS011;14235;48.532;8.722;2023-10-08T04:54:53;4.85;;;3.88;;
26588;SDS011;14235;48.532;8.722;2023-10-08T04:57:37;4.80;;;3.40;;
26588;SDS011;14235;48.532;8.722;2023-10-08T05:00:09;5.22;;;3.22;;
26588;SDS011;14235;48.532;8.722;2023-10-08T05:02:40;7.60;;;3.85;;
26588;SDS011;14235;48.532;8.722;2023-10-08T05:05:15;4.10;;;3.63;;
26588;SDS011;14235;48.532;8.722;2023-10-08T05:07:42;4.13;;;3.40;;
26588;SDS011;14235;48.532;8.722;2023-10-08T05:10:14;5.72;;;3.35;;
26588;SDS011;14235;48.532;8.722;2023-10-08T05:12:44;4.72;;;3.38;;
26588;SDS011;14235;48.532;8.722;2023-10-08T05:15:16;4.80;;;3.22;;
26588;SDS011;14235;48.532;8.722;2023-10-08T05:17:58;4.88;;;4.30;;
26588;SDS011;14235;48.532;8.722;2023-10-08T05:20:39;5.35;;;4.30;;
26588;SDS011;14235;48.532;8.722;2023-10-08T05:23:15;5.80;;;3.95;;
26588;SDS011;14235;48.532;8.722;2023-10-08T05:26:06;6.15;;;3.45;;
26588;SDS011;14235;48.532;8.722;2023-10-08T05:28:33;4.60;;;3.53;;
26588;SDS011;14235;48.532;8.722;2023-10-08T05:31:23;6.57;;;3.78;;
26588;SDS011;14235;48.532;8.722;2023-10-08T05:34:09;5.07;;;3.10;;
26588;SDS011;14235;48.532;8.722;2023-10-08T05:36:57;4.45;;;3.33;;
26588;SDS011;14235;48.532;8.722;2023-10-08T05:39:29;5.05;;;3.08;;
26588;SDS011;14235;48.532;8.722;2023-10-08T05:42:07;4.43;;;3.33;;
26588;SDS011;14235;48.532;8.722;2023-10-08T05:44:42;13.02;;;10.60;;
26588;SDS011;14235;48.532;8.722;2023-10-08T05:47:14;10.38;;;8.18;;
26588;SDS011;14235;48.532;8.722;2023-10-08T05:49:53;9.27;;;7.80;;
26588;SDS011;14235;48.532;8.722;2023-10-08T05:52:44;7.32;;;4.60;;
26588;SDS011;14235;48.532;8.722;2023-10-08T05:55:24;10.00;;;6.45;;
26588;SDS011;14235;48.532;8.722;2023-10-08T05:58:07;8.55;;;6.00;;
26588;SDS011;14235;48.532;8.722;2023-10-08T06:00:50;9.30;;;6.45;;
26588;SDS011;14235;48.532;8.722;2023-10-08T06:03:33;8.57;;;4.78;;
26588;SDS011;14235;48.532;8.722;2023-10-08T06:06:02;6.10;;;3.67;;
26588;SDS011;14235;48.532;8.722;2023-10-08T06:08:41;4.47;;;3.15;;
26588;SDS011;14235;48.532;8.722;2023-10-08T06:11:34;4.97;;;3.03;;
26588;SDS011;14235;48.532;8.722;2023-10-08T06:14:09;6.13;;;3.30;;
26588;SDS011;14235;48.532;8.722;2023-10-08T06:16:53;7.65;;;3.17;;
26588;SDS011;14235;48.532;8.722;2023-10-08T06:19:41;5.05;;;3.28;;
26588;SDS011;14235;48.532;8.722;2023-10-08T06:22:09;5.03;;;3.17;;
26588;SDS011;14235;48.532;8.722;2023-10-08T06:24:38;4.60;;;3.10;;
26588;SDS011;14235;48.532;8.722;2023-10-08T06:27:09;5.38;;;3.33;;
26588;SDS011;14235;48.532;8.722;2023-10-08T06:29:42;5.18;;;3.42;;
26588;SDS011;14235;48.532;8.722;2023-10-08T06:32:09;6.68;;;3.88;;
26588;SDS011;14235;48.532;8.722;2023-10-08T06:34:37;4.47;;;2.75;;
26588;SDS011;14235;48.532;8.722;2023-10-08T06:37:06;4.80;;;3.42;;
26588;SDS011;14235;48.532;8.722;2023-10-08T06:39:40;9.55;;;5.50;;
26588;SDS011;14235;48.532;8.722;2023-10-08T06:42:13;9.70;;;4.97;;
26588;SDS011;14235;48.532;8.722;2023-10-08T06:44:42;9.15;;;4.95;;
26588;SDS011;14235;48.532;8.722;2023-10-08T06:47:11;6.85;;;4.40;;
26588;SDS011;14235;48.532;8.722;2023-10-08T06:49:41;5.18;;;3.85;;
26588;SDS011;14235;48.532;8.722;2023-10-08T06:52:12;8.02;;;4.07;;
26588;SDS011;14235;48.532;8.722;2023-10-08T06:54:39;6.80;;;3.83;;
26588;SDS011;14235;48.532;8.722;2023-10-08T06:57:06;7.45;;;4.18;;
26588;SDS011;14235;48.532;8.722;2023-10-08T06:59:38;6.88;;;4.00;;
26588;SDS011;14235;48.532;8.722;2023-10-08T07:02:07;4.35;;;2.95;;
26588;SDS011;14235;48.532;8.722;2023-10-08T07:04:35;6.03;;;3.20;;
26588;SDS011;14235;48.532;8.722;2023-10-08T07:07:06;4.13;;;3.47;;
26588;SDS011;14235;48.532;8.722;2023-10-08T07:09:34;4.80;;;3.38;;
26588;SDS011;14235;48.532;8.722;2023-10-08T07:12:03;5.63;;;3.97;;
26588;SDS011;14235;48.532;8.722;2023-10-08T07:14:38;5.57;;;3.70;;
26588;SDS011;14235;48.532;8.722;2023-10-08T07:17:06;5.22;;;3.55;;
26588;SDS011;14235;48.532;8.722;2023-10-08T07:19:44;5.85;;;3.03;;
26588;SDS011;14235;48.532;8.722;2023-10-08T07:22:15;6.35;;;3.08;;
26588;SDS011;14235;48.532;8.722;2023-10-08T07:24:53;5.85;;;3.58;;
26588;SDS011;14235;48.532;8.722;2023-10-08T07:27:20;8.75;;;3.25;;
26588;SDS011;14235;48.532;8.722;2023-10-08T07:29:55;6.97;;;2.80;;
26588;SDS011;14235;48.532;8.722;2023-10-08T07:32:21;4.88;;;3.10;;
26588;SDS011;14235;48.532;8.722;2023-10-08T07:34:50;3.72;;;2.60;;
26588;SDS011;14235;48.532;8.722;2023-10-08T07:37:39;8.50;;;3.10;;
26588;SDS011;14235;48.532;8.722;2023-10-08T07:40:09;3.63;;;2.97;;
26588;SDS011;14235;48.532;8.722;2023-10-08T07:42:38;6.65;;;3.10;;
26588;SDS011;14235;48.532;8.722;2023-10-08T07:45:03;5.60;;;3.10;;
26588;SDS011;14235;48.532;8.722;2023-10-08T07:47:32;5.00;;;3.70;;
26588;SDS011;14235;48.532;8.722;2023-10-08T07:49:59;7.28;;;3.45;;
26588;SDS011;14235;48.532;8.722;2023-10-08T07:52:25;5.70;;;3.28;;
26588;SDS011;14235;48.532;8.722;2023-10-08T07:54:54;4.03;;;3.13;;
26588;SDS011;14235;48.532;8.722;2023-10-08T07:57:23;3.97;;;3.10;;
26588;SDS011;14235;48.532;8.722;2023-10-08T07:59:53;7.15;;;3.53;;
26588;SDS011;14235;48.532;8.722;2023-10-08T08:02:42;6.00;;;3.25;;
26588;SDS011;14235;48.532;8.722;2023-10-08T08:05:10;4.25;;;2.97;;
26588;SDS011;14235;48.532;8.722;2023-10-08T08:07:42;5.20;;;3.47;;
26588;SDS011;14235;48.532;8.722;2023-10-08T08:10:12;5.93;;;3.17;;
26588;SDS011;14235;48.532;8.722;2023-10-08T08:12:39;6.80;;;3.30;;
26588;SDS011;14235;48.532;8.722;2023-10-08T08:15:07;8.90;;;3.45;;
26588;SDS011;14235;48.532;8.722;2023-10-08T08:17:43;6.13;;;3.38;;
26588;SDS011;14235;48.532;8.722;2023-10-08T08:20:13;5.47;;;3.45;;
26588;SDS011;14235;48.532;8.722;2023-10-08T08:22:47;6.03;;;3.10;;
26588;SDS011;14235;48.532;8.722;2023-10-08T08:25:19;7.90;;;3.35;;
26588;SDS011;14235;48.532;8.722;2023-10-08T08:27:58;4.55;;;3.17;;
26588;SDS011;14235;48.532;8.722;2023-10-08T08:30:25;5.47;;;3.13;;
26588;SDS011;14235;48.532;8.722;2023-10-08T08:32:54;7.70;;;3.53;;
26588;SDS011;14235;48.532;8.722;2023-10-08T08:35:25;5.68;;;3.40;;
26588;SDS011;14235;48.532;8.722;2023-10-08T08:37:54;6.97;;;2.97;;
26588;SDS011;14235;48.532;8.722;2023-10-08T08:40:21;5.57;;;3.72;;
26588;SDS011;14235;48.532;8.722;2023-10-08T08:42:50;6.05;;;3.10;;
26588;SDS011;14235;48.532;8.722;2023-10-08T08:45:23;6.50;;;3.67;;
26588;SDS011;14235;48.532;8.722;2023-10-08T08:47:58;4.18;;;3.35;;
26588;SDS011;14235;48.532;8.722;2023-10-08T08:50:25;7.28;;;3.25;;
26588;SDS011;14235;48.532;8.722;2023-10-08T08:52:51;8.48;;;3.83;;
26588;SDS011;14235;48.532;8.722;2023-10-08T08:55:18;7.90;;;3.95;;
26588;SDS011;14235;48.532;8.722;2023-10-08T08:57:49;6.10;;;4.10;;
26588;SDS011;14235;48.532;8.722;2023-10-08T09:00:16;7.35;;;4.10;;
26588;SDS011;14235;48.532;8.722;2023-10-08T09:02:43;6.28;;;4.03;;
26588;SDS011;14235;48.532;8.722;2023-10-08T09:05:10;5.10;;;3.63;;
26588;SDS011;14235;48.532;8.722;2023-10-08T09:07:59;9.02;;;4.03;;
26588;SDS011;14235;48.532;8.722;2023-10-08T09:10:34;6.15;;;3.80;;
26588;SDS011;14235;48.532;8.722;2023-10-08T09:13:18;5.32;;;3.78;;
26588;SDS011;14235;48.532;8.722;2023-10-08T09:15:50;6.40;;;3.65;;
26588;SDS011;14235;48.532;8.722;2023-10-08T09:18:16;6.28;;;3.30;;
26588;SDS011;14235;48.532;8.722;2023-10-08T09:20:43;6.85;;;3.63;;
26588;SDS011;14235;48.532;8.722;2023-10-08T09:25:42;7.70;;;3.58;;
26588;SDS011;14235;48.532;8.722;2023-10-08T09:28:08;3.78;;;3.10;;
26588;SDS011;14235;48.532;8.722;2023-10-08T09:30:37;7.63;;;3.78;;
26588;SDS011;14235;48.532;8.722;2023-10-08T09:33:08;6.28;;;3.10;;
26588;SDS011;14235;48.532;8.722;2023-10-08T09:35:34;11.45;;;3.60;;
26588;SDS011;14235;48.532;8.722;2023-10-08T09:38:05;7.15;;;3.78;;
26588;SDS011;14235;48.532;8.722;2023-10-08T09:40:34;8.13;;;3.80;;
26588;SDS011;14235;48.532;8.722;2023-10-08T09:43:00;6.53;;;3.40;;
26588;SDS011;14235;48.532;8.722;2023-10-08T09:45:28;6.22;;;3.72;;
26588;SDS011;14235;48.532;8.722;2023-10-08T09:47:55;7.35;;;3.33;;
26588;SDS011;14235;48.532;8.722;2023-10-08T09:50:22;6.60;;;3.17;;
26588;SDS011;14235;48.532;8.722;2023-10-08T09:53:10;5.60;;;3.47;;
26588;SDS011;14235;48.532;8.722;2023-10-08T09:55:43;6.25;;;3.33;;
26588;SDS011;14235;48.532;8.722;2023-10-08T09:58:10;6.25;;;3.70;;
26588;SDS011;14235;48.532;8.722;2023-10-08T10:00:39;6.53;;;3.40;;
26588;SDS011;14235;48.532;8.722;2023-10-08T10:03:07;9.18;;;3.65;;
26588;SDS011;14235;48.532;8.722;2023-10-08T10:05:34;7.78;;;3.53;;
26588;SDS011;14235;48.532;8.722;2023-10-08T10:08:03;6.43;;;3.35;;
26588;SDS011;14235;48.532;8.722;2023-10-08T10:10:34;8.60;;;3.38;;
26588;SDS011;14235;48.532;8.722;2023-10-08T10:13:09;8.18;;;3.47;;
26588;SDS011;14235;48.532;8.722;2023-10-08T10:15:36;7.68;;;3.72;;
26588;SDS011;14235;48.532;8.722;2023-10-08T10:18:15;9.10;;;4.05;;
26588;SDS011;14235;48.532;8.722;2023-10-08T10:20:53;8.80;;;4.00;;
26588;SDS011;14235;48.532;8.722;2023-10-08T10:23:40;8.38;;;3.75;;
26588;SDS011;14235;48.532;8.722;2023-10-08T10:31:40;12.75;;;4.20;;
26588;SDS011;14235;48.532;8.722;2023-10-08T10:34:11;14.32;;;3.97;;
26588;SDS011;14235;48.532;8.722;2023-10-08T10:36:41;17.42;;;4.70;;
26588;SDS011;14235;48.532;8.722;2023-10-08T10:39:09;12.88;;;4.55;;
26588;SDS011;14235;48.532;8.722;2023-10-08T10:41:47;15.88;;;4.30;;
26588;SDS011;14235;48.532;8.722;2023-10-08T10:44:14;12.45;;;4.57;;
26588;SDS011;14235;48.532;8.722;2023-10-08T10:46:44;12.63;;;4.55;;
26588;SDS011;14235;48.532;8.722;2023-10-08T10:49:30;12.57;;;3.83;;
26588;SDS011;14235;48.532;8.722;2023-10-08T10:51:57;16.30;;;4.65;;
26588;SDS011;14235;48.532;8.722;2023-10-08T10:54:23;16.23;;;4.82;;
26588;SDS011;14235;48.532;8.722;2023-10-08T10:56:52;14.88;;;4.82;;
26588;SDS011;14235;48.532;8.722;2023-10-08T10:59:33;19.35;;;6.65;;
26588;SDS011;14235;48.532;8.722;2023-10-08T11:02:05;16.48;;;5.03;;
26588;SDS011;14235;48.532;8.722;2023-10-08T11:04:34;18.60;;;5.35;;
26588;SDS011;14235;48.532;8.722;2023-10-08T11:07:12;16.70;;;4.55;;
26588;SDS011;14235;48.532;8.722;2023-10-08T11:09:41;16.25;;;5.30;;
26588;SDS011;14235;48.532;8.722;2023-10-08T11:12:09;17.77;;;5.35;;
26588;SDS011;14235;48.532;8.722;2023-10-08T11:14:37;18.63;;;4.70;;
26588;SDS011;14235;48.532;8.722;2023-10-08T11:17:13;20.45;;;4.45;;
26588;SDS011;14235;48.532;8.722;2023-10-08T11:19:45;18.60;;;4.20;;
26588;SDS011;14235;48.532;8.722;2023-10-08T11:22:12;13.07;;;4.10;;
26588;SDS011;14235;48.532;8.722;2023-10-08T11:24:41;21.20;;;4.95;;
26588;SDS011;14235;48.532;8.722;2023-10-08T11:27:17;11.77;;;4.43;;
26588;SDS011;14235;48.532;8.722;2023-10-08T11:29:54;10.15;;;4.43;;
26588;SDS011;14235;48.532;8.722;2023-10-08T11:32:24;16.70;;;4.80;;
26588;SDS011;14235;48.532;8.722;2023-10-08T11:35:00;19.15;;;4.57;;
26588;SDS011;14235;48.532;8.722;2023-10-08T11:37:45;15.73;;;4.30;;
26588;SDS011;14235;48.532;8.722;2023-10-08T11:40:23;19.83;;;4.60;;
26588;SDS011;14235;48.532;8.722;2023-10-08T11:43:13;15.38;;;4.53;;
26588;SDS011;14235;48.532;8.722;2023-10-08T11:45:41;17.67;;;4.90;;
26588;SDS011;14235;48.532;8.722;2023-10-08T11:48:13;18.17;;;4.78;;
26588;SDS011;14235;48.532;8.722;2023-10-08T11:50:42;15.02;;;4.53;;
26588;SDS011;14235;48.532;8.722;2023-10-08T11:53:08;19.52;;;4.78;;
26588;SDS011;14235;48.532;8.722;2023-10-08T11:55:36;22.55;;;4.97;;
26588;SDS011;14235;48.532;8.722;2023-10-08T11:58:07;15.05;;;4.43;;
26588;SDS011;14235;48.532;8.722;2023-10-08T12:00:42;17.65;;;4.60;;
26588;SDS011;14235;48.532;8.722;2023-10-08T12:03:17;17.23;;;4.18;;
26588;SDS011;14235;48.532;8.722;2023-10-08T12:05:43;18.75;;;4.75;;
26588;SDS011;14235;48.532;8.722;2023-10-08T12:08:17;17.77;;;4.75;;
26588;SDS011;14235;48.532;8.722;2023-10-08T12:10:45;16.50;;;4.70;;
26588;SDS011;14235;48.532;8.722;2023-10-08T12:13:13;19.05;;;4.82;;
26588;SDS011;14235;48.532;8.722;2023-10-08T12:15:41;20.55;;;4.50;;
26588;SDS011;14235;48.532;8.722;2023-10-08T12:18:09;17.50;;;4.68;;
26588;SDS011;14235;48.532;8.722;2023-10-08T12:20:41;15.75;;;4.75;;
26588;SDS011;14235;48.532;8.722;2023-10-08T12:23:10;19.10;;;4.78;;
26588;SDS011;14235;48.532;8.722;2023-10-08T12:25:36;17.92;;;4.60;;
26588;SDS011;14235;48.532;8.722;2023-10-08T12:28:03;21.90;;;4.50;;
26588;SDS011;14235;48.532;8.722;2023-10-08T12:30:31;23.40;;;4.80;;
26588;SDS011;14235;48.532;8.722;2023-10-08T12:32:58;20.58;;;5.05;;
26588;SDS011;14235;48.532;8.722;2023-10-08T12:35:24;16.20;;;4.32;;
26588;SDS011;14235;48.532;8.722;2023-10-08T12:37:50;18.58;;;4.22;;
26588;SDS011;14235;48.532;8.722;2023-10-08T12:40:16;19.27;;;4.78;;
26588;SDS011;14235;48.532;8.722;2023-10-08T12:42:56;18.27;;;4.22;;
26588;SDS011;14235;48.532;8.722;2023-10-08T12:45:24;17.90;;;4.47;;
26588;SDS011;14235;48.532;8.722;2023-10-08T12:47:52;22.08;;;5.30;;
26588;SDS011;14235;48.532;8.722;2023-10-08T12:50:19;20.10;;;4.75;;
26588;SDS011;14235;48.532;8.722;2023-10-08T12:52:57;20.17;;;5.05;;
26588;SDS011;14235;48.532;8.722;2023-10-08T12:55:25;21.05;;;5.03;;
26588;SDS011;14235;48.532;8.722;2023-10-08T12:57:55;16.40;;;4.72;;
26588;SDS011;14235;48.532;8.722;2023-10-08T13:00:28;22.65;;;5.10;;
26588;SDS011;14235;48.532;8.722;2023-10-08T13:02:54;24.58;;;5.30;;
26588;SDS011;14235;48.532;8.722;2023-10-08T13:05:22;13.48;;;4.57;;
26588;SDS011;14235;48.532;8.722;2023-10-08T13:07:55;23.77;;;4.90;;
26588;SDS011;14235;48.532;8.722;2023-10-08T13:10:24;19.45;;;4.38;;
26588;SDS011;14235;48.532;8.722;2023-10-08T13:12:51;17.65;;;4.80;;
26588;SDS011;14235;48.532;8.722;2023-10-08T13:15:17;24.33;;;5.25;;
26588;SDS011;14235;48.532;8.722;2023-10-08T13:17:43;21.52;;;5.80;;
26588;SDS011;14235;48.532;8.722;2023-10-08T13:20:11;18.33;;;4.88;;
26588;SDS011;14235;48.532;8.722;2023-10-08T13:22:38;20.65;;;4.68;;
26588;SDS011;14235;48.532;8.722;2023-10-08T13:25:05;22.10;;;5.05;;
26588;SDS011;14235;48.532;8.722;2023-10-08T13:27:32;27.98;;;5.38;;
26588;SDS011;14235;48.532;8.722;2023-10-08T13:29:58;25.05;;;5.25;;
26588;SDS011;14235;48.532;8.722;2023-10-08T13:32:29;15.32;;;4.68;;
26588;SDS011;14235;48.532;8.722;2023-10-08T13:34:55;15.73;;;5.03;;
26588;SDS011;14235;48.532;8.722;2023-10-08T13:37:22;20.30;;;5.95;;
26588;SDS011;14235;48.532;8.722;2023-10-08T13:39:48;21.98;;;5.68;;
26588;SDS011;14235;48.532;8.722;2023-10-08T13:42:14;27.60;;;5.82;;
26588;SDS011;14235;48.532;8.722;2023-10-08T13:44:45;25.23;;;5.80;;
26588;SDS011;14235;48.532;8.722;2023-10-08T13:47:11;23.75;;;5.15;;
26588;SDS011;14235;48.532;8.722;2023-10-08T13:49:40;21.98;;;5.47;;
26588;SDS011;14235;48.532;8.722;2023-10-08T13:52:07;27.17;;;6.57;;
26588;SDS011;14235;48.532;8.722;2023-10-08T13:54:33;24.42;;;5.32;;
26588;SDS011;14235;48.532;8.722;2023-10-08T13:57:04;18.80;;;5.20;;
26588;SDS011;14235;48.532;8.722;2023-10-08T13:59:33;23.00;;;5.40;;
26588;SDS011;14235;48.532;8.722;2023-10-08T14:01:59;21.58;;;6.10;;
26588;SDS011;14235;48.532;8.722;2023-10-08T14:04:27;17.42;;;5.28;;
26588;SDS011;14235;48.532;8.722;2023-10-08T14:06:55;20.38;;;5.28;;
26588;SDS011;14235;48.532;8.722;2023-10-08T14:09:23;18.23;;;4.75;;
26588;SDS011;14235;48.532;8.722;2023-10-08T14:12:01;20.60;;;5.40;;
26588;SDS011;14235;48.532;8.722;2023-10-08T14:14:28;19.38;;;5.32;;
26588;SDS011;14235;48.532;8.722;2023-10-08T14:16:58;24.08;;;5.45;;
26588;SDS011;14235;48.532;8.722;2023-10-08T14:19:28;19.48;;;5.18;;
26588;SDS011;14235;48.532;8.722;2023-10-08T14:22:04;14.20;;;5.28;;
26588;SDS011;14235;48.532;8.722;2023-10-08T14:24:33;19.60;;;5.93;;
26588;SDS011;14235;48.532;8.722;2023-10-08T14:27:03;15.82;;;5.50;;
26588;SDS011;14235;48.532;8.722;2023-10-08T14:29:34;21.38;;;5.40;;
26588;SDS011;14235;48.532;8.722;2023-10-08T14:32:03;19.88;;;5.13;;
26588;SDS011;14235;48.532;8.722;2023-10-08T14:34:33;24.20;;;6.13;;
26588;SDS011;14235;48.532;8.722;2023-10-08T14:37:12;23.73;;;6.00;;
26588;SDS011;14235;48.532;8.722;2023-10-08T14:39:57;19.58;;;5.40;;
26588;SDS011;14235;48.532;8.722;2023-10-08T14:42:41;23.80;;;5.55;;
26588;SDS011;14235;48.532;8.722;2023-10-08T14:45:25;18.15;;;5.65;;
26588;SDS011;14235;48.532;8.722;2023-10-08T14:47:55;23.98;;;6.50;;
26588;SDS011;14235;48.532;8.722;2023-10-08T14:50:22;21.05;;;5.57;;
26588;SDS011;14235;48.532;8.722;2023-10-08T14:52:48;21.77;;;6.03;;
26588;SDS011;14235;48.532;8.722;2023-10-08T14:55:15;18.23;;;5.32;;
26588;SDS011;14235;48.532;8.722;2023-10-08T14:57:46;19.13;;;5.38;;
26588;SDS011;14235;48.532;8.722;2023-10-08T15:00:12;15.82;;;5.30;;
26588;SDS011;14235;48.532;8.722;2023-10-08T15:02:38;19.42;;;5.07;;
26588;SDS011;14235;48.532;8.722;2023-10-08T15:05:04;19.15;;;4.93;;
26588;SDS011;14235;48.532;8.722;2023-10-08T15:07:31;16.38;;;4.97;;
26588;SDS011;14235;48.532;8.722;2023-10-08T15:09:57;17.27;;;5.25;;
26588;SDS011;14235;48.532;8.722;2023-10-08T15:12:25;20.17;;;5.40;;
26588;SDS011;14235;48.532;8.722;2023-10-08T15:14:51;23.65;;;5.45;;